createdAt,value
2023-01-17T00:00:01.534Z,100.00
2023-01-17T00:02:31.097Z,100.00
2023-01-17T00:05:17.069Z,100.00
2023-01-17T00:08:02.398Z,100.00
2023-01-17T00:10:29.245Z,100.00
2023-01-17T00:12:57.513Z,100.00
2023-01-17T00:15:25.018Z,100.00
2023-01-17T00:17:57.131Z,100.00
2023-01-17T00:20:47.442Z,100.00
2023-01-17T00:23:35.846Z,100.00
2023-01-17T00:26:05.632Z,100.00
2023-01-17T00:28:43.208Z,100.00
2023-01-17T00:31:11.631Z,100.00
2023-01-17T00:33:38.169Z,100.00
2023-01-17T00:36:06.376Z,100.00
2023-01-17T00:38:38.224Z,100.00
2023-01-17T00:41:07.656Z,100.00
2023-01-17T00:43:53.112Z,100.00
2023-01-17T00:46:38.598Z,100.00
2023-01-17T00:49:24.759Z,100.00
2023-01-17T00:52:09.615Z,100.00
2023-01-17T00:54:54.841Z,100.00
2023-01-17T00:57:40.063Z,100.00
2023-01-17T01:00:26.068Z,100.00
2023-01-17T01:03:11.094Z,100.00
2023-01-17T01:05:56.551Z,100.00
2023-01-17T01:08:47.159Z,100.00
2023-01-17T01:11:35.439Z,100.00
2023-01-17T01:14:20.783Z,100.00
2023-01-17T01:17:06.236Z,100.00
2023-01-17T01:19:51.658Z,100.00
2023-01-17T01:22:36.508Z,100.00
2023-01-17T01:25:22.587Z,100.00
2023-01-17T01:28:07.753Z,100.00
2023-01-17T01:30:52.979Z,100.00
2023-01-17T01:33:20.165Z,100.00
2023-01-17T01:35:51.918Z,100.00
2023-01-17T01:38:24.840Z,100.00
2023-01-17T01:40:54.130Z,100.00
2023-01-17T01:43:48.072Z,100.00
2023-01-17T01:46:21.662Z,100.00
2023-01-17T01:48:56.691Z,100.00
2023-01-17T01:51:30.090Z,100.00
2023-01-17T01:54:05.169Z,100.00
2023-01-17T01:56:32.486Z,100.00
2023-01-17T01:59:02.968Z,100.00
2023-01-17T02:01:31.231Z,100.00
2023-01-17T02:03:58.038Z,100.00
2023-01-17T02:06:36.212Z,100.00
2023-01-17T02:09:07.157Z,100.00
2023-01-17T02:11:36.474Z,100.00
2023-01-17T02:14:03.667Z,100.00
2023-01-17T02:17:20.038Z,100.00
2023-01-17T02:20:08.541Z,100.00
2023-01-17T02:22:50.023Z,100.00
2023-01-17T02:25:44.944Z,100.00
2023-01-17T02:28:30.269Z,100.00
2023-01-17T02:31:03.720Z,100.00
2023-01-17T02:33:52.095Z,100.00
2023-01-17T02:36:40.493Z,100.00
2023-01-17T02:39:17.840Z,100.00
2023-01-17T02:41:49.134Z,100.00
2023-01-17T02:44:19.199Z,100.00
2023-01-17T02:46:57.026Z,100.00
2023-01-17T02:49:30.508Z,100.00
2023-01-17T02:51:57.017Z,100.00
2023-01-17T02:54:48.454Z,100.00
2023-01-17T02:57:36.953Z,100.00
2023-01-17T03:00:18.625Z,100.00
2023-01-17T03:02:57.347Z,100.00
2023-01-17T03:05:29.742Z,100.00
2023-01-17T03:07:56.943Z,100.00
2023-01-17T03:10:24.351Z,99.88
2023-01-17T03:12:56.554Z,100.00
2023-01-17T03:15:23.096Z,99.94
2023-01-17T03:17:53.482Z,100.00
2023-01-17T03:20:22.546Z,100.00
2023-01-17T03:22:49.371Z,99.34
2023-01-17T03:25:19.055Z,99.60
2023-01-17T03:27:45.732Z,99.30
2023-01-17T03:30:23.325Z,98.20
2023-01-17T03:32:50.370Z,98.68
2023-01-17T03:35:17.385Z,99.28
2023-01-17T03:37:43.935Z,99.83
2023-01-17T03:40:11.023Z,100.00
2023-01-17T03:42:37.581Z,100.00
2023-01-17T03:45:04.531Z,100.00
2023-01-17T03:47:31.090Z,100.00
2023-01-17T03:49:57.645Z,100.00
2023-01-17T03:52:24.299Z,100.00
2023-01-17T03:54:50.932Z,100.00
2023-01-17T03:57:17.464Z,99.50
2023-01-17T03:59:44.022Z,98.66
2023-01-17T04:02:10.667Z,97.69
2023-01-17T04:04:37.280Z,97.85
2023-01-17T04:07:04.065Z,97.02
2023-01-17T04:09:36.513Z,97.44
2023-01-17T04:12:03.495Z,97.00
2023-01-17T04:14:30.156Z,96.58
2023-01-17T04:16:57.006Z,96.35
2023-01-17T04:19:23.817Z,96.85
2023-01-17T04:21:50.440Z,96.78
2023-01-17T04:24:18.131Z,96.62
2023-01-17T04:26:45.918Z,97.01
2023-01-17T04:29:12.449Z,96.30
2023-01-17T04:31:39.179Z,96.56
2023-01-17T04:34:05.785Z,96.35
2023-01-17T04:36:34.291Z,96.35
2023-01-17T04:39:04.075Z,96.85
2023-01-17T04:41:30.814Z,96.59
2023-01-17T04:43:57.301Z,96.43
2023-01-17T04:46:24.021Z,96.17
2023-01-17T04:48:50.620Z,96.85
2023-01-17T04:51:19.476Z,97.18
2023-01-17T04:53:46.688Z,97.15
2023-01-17T04:56:13.347Z,97.95
2023-01-17T04:58:39.933Z,97.38
2023-01-17T05:01:09.942Z,97.06
2023-01-17T05:03:36.736Z,98.48
2023-01-17T05:06:03.461Z,99.40
2023-01-17T05:08:30.400Z,98.46
2023-01-17T05:10:57.080Z,98.96
2023-01-17T05:13:23.852Z,98.68
2023-01-17T05:15:50.605Z,98.78
2023-01-17T05:18:18.893Z,98.52
2023-01-17T05:20:45.733Z,98.56
2023-01-17T05:23:12.460Z,98.57
2023-01-17T05:25:44.550Z,98.60
2023-01-17T05:28:12.837Z,97.73
2023-01-17T05:30:39.408Z,98.19
2023-01-17T05:33:06.192Z,98.38
2023-01-17T05:35:32.839Z,98.23
2023-01-17T05:38:01.962Z,97.71
2023-01-17T05:40:31.542Z,97.10
2023-01-17T05:42:59.898Z,96.88
2023-01-17T05:45:28.672Z,96.55
2023-01-17T05:47:56.476Z,96.36
2023-01-17T05:50:33.244Z,95.80
2023-01-17T05:53:11.636Z,96.87
2023-01-17T05:55:39.187Z,96.31
2023-01-17T05:58:18.132Z,96.71
2023-01-17T06:00:45.559Z,96.03
2023-01-17T06:03:13.084Z,96.33
2023-01-17T06:05:40.106Z,95.91
2023-01-17T06:08:13.526Z,96.93
2023-01-17T06:10:44.792Z,95.96
2023-01-17T06:13:15.308Z,96.09
2023-01-17T06:15:42.091Z,96.51
2023-01-17T06:18:11.254Z,96.71
2023-01-17T06:20:38.623Z,95.43
2023-01-17T06:23:09.813Z,94.88
2023-01-17T06:25:46.644Z,95.12
2023-01-17T06:28:15.839Z,95.37
2023-01-17T06:30:43.968Z,94.82
2023-01-17T06:33:13.179Z,95.73
2023-01-17T06:35:46.590Z,95.60
2023-01-17T06:38:13.142Z,94.70
2023-01-17T06:40:39.756Z,93.96
2023-01-17T06:43:06.379Z,94.59
2023-01-17T06:45:35.485Z,94.69
2023-01-17T06:48:04.280Z,94.79
2023-01-17T06:50:32.139Z,94.45
2023-01-17T06:53:02.110Z,94.84
2023-01-17T06:55:30.446Z,94.62
2023-01-17T06:58:03.239Z,95.06
2023-01-17T07:00:31.265Z,95.19
2023-01-17T07:02:58.199Z,94.60
2023-01-17T07:05:25.080Z,94.36
2023-01-17T07:07:51.676Z,93.42
2023-01-17T07:10:18.364Z,93.72
2023-01-17T07:12:44.933Z,94.32
2023-01-17T07:15:11.963Z,93.77
2023-01-17T07:17:38.938Z,93.22
2023-01-17T07:20:06.591Z,93.03
2023-01-17T07:22:33.232Z,93.15
2023-01-17T07:25:00.392Z,92.84
2023-01-17T07:27:30.489Z,92.45
2023-01-17T07:29:57.680Z,92.51
2023-01-17T07:32:26.769Z,92.22
2023-01-17T07:34:54.362Z,91.96
2023-01-17T07:37:21.152Z,91.63
2023-01-17T07:39:47.732Z,92.02
2023-01-17T07:42:14.279Z,91.49
2023-01-17T07:44:44.081Z,90.94
2023-01-17T07:47:11.665Z,91.12
2023-01-17T07:49:42.297Z,91.00
2023-01-17T07:52:09.752Z,91.15
2023-01-17T07:54:36.327Z,91.06
2023-01-17T07:57:03.516Z,90.90
2023-01-17T07:59:30.209Z,90.85
2023-01-17T08:01:56.905Z,91.01
2023-01-17T08:04:31.499Z,90.72
2023-01-17T08:07:00.552Z,91.10
2023-01-17T08:09:27.231Z,90.55
2023-01-17T08:11:53.792Z,91.19
2023-01-17T08:14:20.362Z,90.40
2023-01-17T08:16:46.971Z,90.49
2023-01-17T08:19:15.379Z,90.50
2023-01-17T08:21:41.890Z,90.19
2023-01-17T08:24:14.683Z,89.49
2023-01-17T08:26:41.304Z,89.16
2023-01-17T08:29:10.486Z,88.76
2023-01-17T08:31:37.047Z,88.15
2023-01-17T08:34:04.305Z,87.35
2023-01-17T08:36:31.464Z,86.96
2023-01-17T08:38:58.692Z,86.14
2023-01-17T08:41:27.856Z,85.23
2023-01-17T08:43:56.700Z,84.61
2023-01-17T08:46:32.127Z,85.50
2023-01-17T08:49:00.153Z,84.63
2023-01-17T08:51:27.568Z,85.06
2023-01-17T08:53:57.351Z,85.23
2023-01-17T08:56:24.430Z,84.34
2023-01-17T08:58:51.050Z,84.38
2023-01-17T09:01:17.837Z,83.72
2023-01-17T09:03:45.820Z,83.60
2023-01-17T09:06:15.209Z,83.77
2023-01-17T09:08:47.158Z,83.51
2023-01-17T09:11:17.135Z,83.57
2023-01-17T09:13:44.673Z,82.79
2023-01-17T09:16:11.382Z,82.42
2023-01-17T09:18:38.151Z,82.56
2023-01-17T09:21:18.190Z,82.44
2023-01-17T09:23:45.294Z,80.72
2023-01-17T09:26:29.471Z,79.71
2023-01-17T09:28:56.543Z,78.48
2023-01-17T09:31:24.574Z,77.43
2023-01-17T09:33:52.086Z,75.89
2023-01-17T09:36:19.112Z,75.13
2023-01-17T09:38:45.809Z,75.21
2023-01-17T09:41:21.719Z,75.39
2023-01-17T09:43:55.498Z,75.54
2023-01-17T09:46:29.657Z,75.67
2023-01-17T09:49:07.988Z,75.24
2023-01-17T09:51:34.838Z,75.45
2023-01-17T09:54:04.326Z,75.96
2023-01-17T09:56:49.551Z,75.42
2023-01-17T09:59:37.873Z,75.08
2023-01-17T10:02:20.283Z,74.28
2023-01-17T10:05:16.748Z,74.88
2023-01-17T10:07:49.722Z,75.00
2023-01-17T10:10:39.844Z,74.53
2023-01-17T10:13:34.155Z,74.04
2023-01-17T10:16:21.578Z,73.48
2023-01-17T10:19:09.941Z,73.23
2023-01-17T10:21:51.444Z,73.06
2023-01-17T10:24:36.651Z,71.94
2023-01-17T10:27:09.812Z,72.91
2023-01-17T10:29:37.037Z,72.65
2023-01-17T10:32:03.734Z,73.94
2023-01-17T10:34:41.017Z,74.71
2023-01-17T10:37:41.151Z,75.52
2023-01-17T10:40:27.137Z,75.16
2023-01-17T10:43:02.989Z,74.73
2023-01-17T10:45:43.639Z,74.63
2023-01-17T10:48:24.447Z,75.17
2023-01-17T10:51:12.567Z,74.96
2023-01-17T10:53:54.708Z,75.76
2023-01-17T10:56:29.899Z,75.98
2023-01-17T10:59:24.352Z,75.80
2023-01-17T11:01:51.380Z,75.48
2023-01-17T11:04:21.723Z,75.78
2023-01-17T11:07:09.983Z,75.32
2023-01-17T11:09:42.567Z,74.61
2023-01-17T11:12:27.334Z,74.51
2023-01-17T11:15:10.912Z,75.56
2023-01-17T11:18:05.853Z,75.78
2023-01-17T11:20:39.575Z,75.89
2023-01-17T11:23:15.364Z,75.72
2023-01-17T11:25:51.013Z,75.78
2023-01-17T11:28:26.697Z,75.49
2023-01-17T11:31:07.582Z,75.09
2023-01-17T11:33:48.233Z,74.51
2023-01-17T11:36:41.270Z,73.46
2023-01-17T11:39:19.904Z,73.16
2023-01-17T11:41:51.327Z,73.43
2023-01-17T11:44:32.905Z,72.77
2023-01-17T11:47:11.831Z,73.02
2023-01-17T11:49:40.013Z,72.05
2023-01-17T11:52:23.384Z,71.48
2023-01-17T11:54:53.576Z,71.57
2023-01-17T11:57:27.779Z,72.33
2023-01-17T12:00:12.785Z,73.43
2023-01-17T12:02:57.619Z,74.62
2023-01-17T12:05:40.487Z,73.79
2023-01-17T12:08:13.682Z,74.18
2023-01-17T12:10:43.328Z,73.54
2023-01-17T12:13:52.174Z,74.12
2023-01-17T12:16:39.219Z,75.10
2023-01-17T12:19:32.910Z,76.14
2023-01-17T12:22:05.515Z,76.65
2023-01-17T12:24:56.921Z,76.57
2023-01-17T12:27:34.882Z,76.29
2023-01-17T12:30:34.177Z,76.69
2023-01-17T12:33:19.352Z,76.33
2023-01-17T12:35:53.783Z,77.28
2023-01-17T12:38:32.759Z,76.01
2023-01-17T12:41:06.283Z,75.97
2023-01-17T12:43:46.336Z,76.44
2023-01-17T12:46:34.891Z,75.64
2023-01-17T12:49:37.250Z,75.95
2023-01-17T12:52:16.148Z,75.42
2023-01-17T12:54:51.663Z,75.56
2023-01-17T12:57:29.850Z,75.07
2023-01-17T13:00:14.782Z,75.26
2023-01-17T13:02:54.732Z,74.48
2023-01-17T13:05:32.046Z,74.00
2023-01-17T13:08:39.105Z,73.94
2023-01-17T13:11:15.493Z,74.14
2023-01-17T13:13:43.551Z,74.76
2023-01-17T13:16:16.063Z,74.45
2023-01-17T13:18:48.346Z,74.23
2023-01-17T13:21:32.403Z,74.57
2023-01-17T13:24:08.074Z,74.60
2023-01-17T13:26:44.363Z,74.93
2023-01-17T13:29:25.337Z,74.50
2023-01-17T13:32:10.579Z,74.97
2023-01-17T13:35:12.717Z,74.09
2023-01-17T13:38:08.976Z,74.31
2023-01-17T13:40:50.391Z,74.42
2023-01-17T13:43:26.624Z,74.74
2023-01-17T13:45:56.676Z,74.18
2023-01-17T13:48:23.438Z,74.17
2023-01-17T13:51:04.416Z,75.16
2023-01-17T13:53:34.005Z,74.71
2023-01-17T13:56:23.310Z,74.64
2023-01-17T13:58:57.983Z,75.85
2023-01-17T14:01:26.332Z,76.03
2023-01-17T14:03:53.022Z,76.70
2023-01-17T14:06:33.451Z,76.50
2023-01-17T14:09:17.647Z,75.78
2023-01-17T14:12:10.361Z,75.72
2023-01-17T14:14:39.962Z,74.37
2023-01-17T14:17:28.179Z,73.83
2023-01-17T14:20:21.786Z,74.99
2023-01-17T14:22:53.649Z,74.41
2023-01-17T14:25:25.500Z,74.70
2023-01-17T14:27:57.682Z,74.59
2023-01-17T14:30:33.534Z,75.52
2023-01-17T14:33:08.689Z,75.00
2023-01-17T14:35:49.754Z,74.79
2023-01-17T14:38:23.624Z,75.94
2023-01-17T14:40:58.863Z,75.92
2023-01-17T14:43:28.722Z,74.67
2023-01-17T14:46:01.860Z,74.37
2023-01-17T14:48:29.316Z,74.81
2023-01-17T14:51:00.050Z,75.94
2023-01-17T14:53:31.636Z,75.91
2023-01-17T14:56:12.264Z,76.62
2023-01-17T14:58:48.038Z,76.04
2023-01-17T15:01:22.185Z,77.94
2023-01-17T15:03:57.762Z,78.64
2023-01-17T15:06:39.009Z,78.30
2023-01-17T15:09:12.323Z,77.73
2023-01-17T15:11:39.542Z,78.04
2023-01-17T15:14:09.375Z,78.16
2023-01-17T15:16:38.263Z,77.80
2023-01-17T15:19:18.259Z,77.56
2023-01-17T15:21:48.023Z,77.53
2023-01-17T15:24:25.633Z,76.36
2023-01-17T15:26:56.682Z,76.06
2023-01-17T15:29:31.084Z,75.92
2023-01-17T15:32:04.077Z,75.33
2023-01-17T15:34:43.160Z,76.34
2023-01-17T15:37:32.718Z,76.46
2023-01-17T15:40:29.746Z,77.02
2023-01-17T15:43:00.941Z,78.50
2023-01-17T15:45:30.949Z,79.20
2023-01-17T15:47:59.297Z,79.53
2023-01-17T15:50:33.499Z,80.26
2023-01-17T15:53:05.250Z,81.20
2023-01-17T15:55:36.021Z,82.27
2023-01-17T15:58:04.273Z,82.34
2023-01-17T16:00:38.141Z,82.37
2023-01-17T16:03:24.544Z,81.92
2023-01-17T16:05:53.786Z,82.33
2023-01-17T16:08:33.967Z,82.26
2023-01-17T16:11:05.778Z,82.95
2023-01-17T16:13:42.375Z,82.83
2023-01-17T16:16:24.191Z,83.19
2023-01-17T16:18:59.166Z,83.84
2023-01-17T16:21:28.465Z,84.24
2023-01-17T16:23:55.450Z,85.44
2023-01-17T16:26:25.006Z,86.12
2023-01-17T16:28:55.127Z,86.70
2023-01-17T16:31:21.795Z,87.79
2023-01-17T16:33:51.945Z,89.63
2023-01-17T16:36:20.976Z,90.94
2023-01-17T16:38:49.957Z,91.68
2023-01-17T16:41:16.617Z,90.89
2023-01-17T16:43:43.219Z,89.88
2023-01-17T16:46:12.017Z,91.00
2023-01-17T16:48:38.888Z,91.74
2023-01-17T16:51:07.630Z,92.41
2023-01-17T16:53:35.472Z,92.31
2023-01-17T16:56:13.684Z,93.25
2023-01-17T16:58:41.182Z,93.92
2023-01-17T17:01:15.565Z,93.83
2023-01-17T17:03:46.211Z,92.55
2023-01-17T17:06:13.302Z,92.67
2023-01-17T17:08:40.079Z,92.95
2023-01-17T17:11:16.300Z,93.98
2023-01-17T17:13:45.023Z,93.91
2023-01-17T17:16:16.774Z,93.84
2023-01-17T17:18:45.293Z,93.43
2023-01-17T17:21:13.140Z,93.59
2023-01-17T17:23:39.934Z,93.12
2023-01-17T17:26:06.589Z,94.99
2023-01-17T17:28:33.177Z,95.25
2023-01-17T17:31:05.446Z,95.44
2023-01-17T17:33:33.544Z,95.79
2023-01-17T17:36:05.234Z,96.72
2023-01-17T17:38:35.188Z,96.33
2023-01-17T17:41:09.891Z,96.49
2023-01-17T17:43:41.370Z,96.66
2023-01-17T17:46:09.609Z,97.05
2023-01-17T17:48:36.797Z,97.21
2023-01-17T17:51:04.181Z,97.55
2023-01-17T17:53:31.692Z,96.99
2023-01-17T17:56:06.011Z,96.00
2023-01-17T17:58:34.229Z,94.72
2023-01-17T18:01:05.280Z,94.31
2023-01-17T18:03:32.317Z,94.39
2023-01-17T18:06:07.852Z,94.44
2023-01-17T18:08:35.463Z,95.50
2023-01-17T18:11:05.019Z,95.98
2023-01-17T18:13:32.725Z,95.60
2023-01-17T18:16:05.671Z,95.94
2023-01-17T18:18:33.275Z,96.32
2023-01-17T18:21:12.509Z,95.85
2023-01-17T18:23:41.632Z,96.21
2023-01-17T18:26:17.263Z,96.19
2023-01-17T18:28:43.921Z,96.04
2023-01-17T18:31:10.521Z,96.34
2023-01-17T18:33:38.774Z,96.71
2023-01-17T18:36:10.852Z,97.14
2023-01-17T18:38:42.239Z,97.46
2023-01-17T18:41:12.277Z,97.69
2023-01-17T18:43:39.392Z,98.02
2023-01-17T18:46:07.103Z,97.73
2023-01-17T18:48:33.810Z,98.19
2023-01-17T18:51:02.964Z,98.07
2023-01-17T18:53:32.092Z,98.39
2023-01-17T18:56:00.908Z,98.41
2023-01-17T18:58:32.454Z,98.68
2023-01-17T19:01:14.781Z,98.16
2023-01-17T19:03:56.340Z,97.51
2023-01-17T19:06:28.837Z,97.00
2023-01-17T19:08:55.475Z,97.11
2023-01-17T19:11:28.837Z,97.17
2023-01-17T19:13:56.369Z,97.09
2023-01-17T19:16:25.445Z,97.83
2023-01-17T19:18:52.842Z,96.64
2023-01-17T19:21:27.683Z,96.98
2023-01-17T19:23:59.830Z,96.58
2023-01-17T19:26:30.674Z,96.79
2023-01-17T19:29:14.731Z,97.51
2023-01-17T19:31:43.424Z,98.06
2023-01-17T19:34:11.724Z,98.39
2023-01-17T19:36:39.091Z,98.90
2023-01-17T19:39:09.403Z,99.34
2023-01-17T19:41:38.510Z,99.71
2023-01-17T19:44:09.019Z,100.00
2023-01-17T19:46:36.519Z,99.67
2023-01-17T19:49:09.522Z,99.80
2023-01-17T19:51:36.846Z,99.71
2023-01-17T19:54:04.340Z,99.56
2023-01-17T19:56:34.063Z,99.44
2023-01-17T19:59:02.003Z,99.42
2023-01-17T20:01:32.847Z,99.94
2023-01-17T20:04:01.155Z,100.00
2023-01-17T20:06:32.905Z,100.00
2023-01-17T20:09:00.168Z,99.67
2023-01-17T20:11:29.876Z,99.85
2023-01-17T20:13:58.290Z,99.91
2023-01-17T20:16:26.595Z,99.79
2023-01-17T20:18:53.486Z,99.78
2023-01-17T20:21:25.945Z,98.87
2023-01-17T20:23:53.498Z,98.78
2023-01-17T20:26:36.053Z,98.88
2023-01-17T20:29:10.666Z,98.90
2023-01-17T20:31:38.491Z,98.51
2023-01-17T20:34:05.731Z,99.49
2023-01-17T20:36:33.253Z,99.50
2023-01-17T20:39:03.088Z,100.00
2023-01-17T20:41:38.975Z,100.00
2023-01-17T20:44:07.964Z,100.00
2023-01-17T20:46:40.529Z,100.00
2023-01-17T20:49:15.975Z,100.00
2023-01-17T20:51:44.610Z,100.00
2023-01-17T20:54:14.476Z,100.00
2023-01-17T20:56:45.341Z,100.00
2023-01-17T20:59:17.767Z,100.00
2023-01-17T21:01:45.309Z,100.00
2023-01-17T21:04:13.194Z,100.00
2023-01-17T21:06:41.641Z,100.00
2023-01-17T21:09:12.176Z,100.00
2023-01-17T21:11:38.788Z,100.00
2023-01-17T21:14:06.139Z,100.00
2023-01-17T21:16:34.277Z,100.00
2023-01-17T21:19:01.350Z,100.00
2023-01-17T21:21:29.346Z,100.00
2023-01-17T21:23:58.072Z,100.00
2023-01-17T21:26:26.225Z,100.00
2023-01-17T21:28:53.361Z,100.00
2023-01-17T21:31:24.685Z,99.86
2023-01-17T21:34:06.270Z,99.93
2023-01-17T21:36:38.023Z,99.52
2023-01-17T21:39:07.596Z,99.34
2023-01-17T21:41:37.532Z,99.52
2023-01-17T21:44:10.378Z,99.23
2023-01-17T21:46:41.317Z,99.54
2023-01-17T21:49:12.975Z,99.35
2023-01-17T21:52:04.024Z,99.09
2023-01-17T21:54:56.985Z,99.44
2023-01-17T21:57:42.290Z,99.87
2023-01-17T22:00:14.657Z,99.72
2023-01-17T22:02:41.877Z,100.00
2023-01-17T22:05:09.736Z,99.83
2023-01-17T22:07:36.595Z,99.84
2023-01-17T22:10:03.320Z,99.85
2023-01-17T22:12:29.997Z,100.00
2023-01-17T22:14:56.801Z,100.00
2023-01-17T22:17:23.650Z,100.00
2023-01-17T22:19:50.525Z,100.00
2023-01-17T22:22:17.158Z,100.00
2023-01-17T22:24:43.993Z,100.00
2023-01-17T22:27:10.715Z,100.00
2023-01-17T22:29:38.106Z,100.00
2023-01-17T22:32:04.960Z,100.00
2023-01-17T22:34:31.628Z,100.00
2023-01-17T22:36:58.185Z,100.00
2023-01-17T22:39:24.866Z,100.00
2023-01-17T22:41:51.476Z,100.00
2023-01-17T22:44:18.382Z,100.00
2023-01-17T22:46:45.473Z,100.00
2023-01-17T22:49:13.435Z,100.00
2023-01-17T22:51:40.051Z,100.00
2023-01-17T22:54:06.757Z,100.00
2023-01-17T22:56:33.910Z,100.00
2023-01-17T22:59:01.182Z,100.00
2023-01-17T23:01:32.900Z,100.00
2023-01-17T23:04:02.138Z,100.00
2023-01-17T23:06:34.996Z,100.00
2023-01-17T23:09:08.727Z,100.00
2023-01-17T23:11:43.992Z,100.00
2023-01-17T23:14:28.311Z,100.00
2023-01-17T23:17:16.615Z,100.00
2023-01-17T23:19:48.346Z,100.00
2023-01-17T23:22:32.995Z,100.00
2023-01-17T23:25:06.640Z,100.00
2023-01-17T23:27:56.277Z,100.00
2023-01-17T23:30:30.366Z,100.00
2023-01-17T23:32:59.723Z,100.00
2023-01-17T23:35:32.351Z,100.00
2023-01-17T23:38:17.595Z,100.00
2023-01-17T23:41:04.859Z,100.00
2023-01-17T23:43:32.115Z,100.00
2023-01-17T23:45:58.875Z,100.00
2023-01-17T23:48:28.450Z,100.00
2023-01-17T23:51:08.604Z,100.00
2023-01-17T23:53:37.468Z,100.00
2023-01-17T23:56:07.481Z,100.00
2023-01-17T23:58:34.259Z,100.00
